Time;durP1;ratioP1;P1;durP2;ratioP2;P2;SDS_P1;SDS_P2;PMS_P1;PMS_P2;Temp;Humidity;BMP_temperature;BMP_pressure;BME280_temperature;BME280_humidity;BME280_pressure;Samples;Min_cycle;Max_cycle;Signal;HPM_P1;HPM_P2
2021/05/10 00:01:31;;;;;;;5.55;0.70;;;13.30;56.30;;;;;;5031490;28;20045;-69
2021/05/10 00:04:00;;;;;;;2.80;0.50;;;13.20;56.90;;;;;;5036351;28;20053;-70
2021/05/10 00:06:27;;;;;;;1.75;0.63;;;13.10;57.40;;;;;;5052936;28;20049;-70
2021/05/10 00:08:55;;;;;;;2.03;0.70;;;13.10;59.20;;;;;;5030564;28;20061;-69
2021/05/10 00:11:22;;;;;;;1.40;0.60;;;13.00;58.70;;;;;;5032828;28;20053;-69
2021/05/10 00:13:50;;;;;;;2.40;0.57;;;13.00;59.20;;;;;;5050118;28;20056;-69
2021/05/10 00:16:18;;;;;;;2.72;0.57;;;12.90;59.10;;;;;;5034476;28;20408;-69
2021/05/10 00:18:45;;;;;;;1.90;0.70;;;13.00;59.40;;;;;;5022138;28;20503;-69
2021/05/10 00:21:11;;;;;;;2.67;0.88;;;12.90;59.70;;;;;;5033941;28;20052;-69
2021/05/10 00:23:38;;;;;;;1.95;0.80;;;12.90;60.50;;;;;;5033164;28;20045;-70
2021/05/10 00:26:05;;;;;;;3.17;0.93;;;12.80;60.40;;;;;;5032208;28;20736;-69
2021/05/10 00:28:31;;;;;;;3.13;0.80;;;12.80;61.50;;;;;;5018070;28;20056;-70
2021/05/10 00:30:58;;;;;;;3.42;0.88;;;12.80;60.60;;;;;;5026261;28;20092;-69
2021/05/10 00:33:24;;;;;;;1.75;0.85;;;12.80;60.20;;;;;;5033902;28;20060;-69
2021/05/10 00:35:51;;;;;;;3.47;0.77;;;12.80;60.30;;;;;;5032573;28;20107;-69
2021/05/10 00:38:18;;;;;;;5.65;0.70;;;12.70;60.50;;;;;;5050228;28;20099;-69
2021/05/10 00:40:44;;;;;;;2.45;0.60;;;12.80;60.50;;;;;;5017341;28;20649;-70
2021/05/10 00:43:11;;;;;;;3.00;0.80;;;12.70;60.40;;;;;;5051349;28;20045;-69
2021/05/10 00:45:37;;;;;;;2.22;0.80;;;12.70;61.20;;;;;;5049512;28;20511;-69
2021/05/10 00:48:04;;;;;;;1.08;0.77;;;12.80;61.00;;;;;;5025017;28;20073;-69
2021/05/10 00:50:31;;;;;;;1.17;0.40;;;12.70;61.60;;;;;;5048172;28;20110;-69
2021/05/10 00:52:57;;;;;;;2.05;0.88;;;12.70;62.00;;;;;;5014862;28;20107;-69
2021/05/10 00:55:25;;;;;;;1.02;0.57;;;12.60;62.00;;;;;;5031887;28;20500;-69
2021/05/10 00:58:02;;;;;;;2.53;0.93;;;12.50;62.20;;;;;;5046407;28;20052;-69
2021/05/10 01:00:37;;;;;;;2.42;0.47;;;12.50;62.00;;;;;;5022724;28;20749;-69
2021/05/10 01:03:05;;;;;;;1.42;0.40;;;12.50;62.90;;;;;;5051178;28;20051;-69
2021/05/10 01:05:31;;;;;;;2.65;0.70;;;12.40;62.60;;;;;;5004763;28;20115;-69
2021/05/10 01:07:58;;;;;;;2.03;0.40;;;12.40;62.80;;;;;;5031974;28;20052;-69
2021/05/10 01:10:26;;;;;;;2.40;0.50;;;12.40;63.50;;;;;;5033160;28;20048;-70
2021/05/10 01:12:52;;;;;;;1.50;0.70;;;12.40;63.60;;;;;;5026020;28;20128;-69
2021/05/10 01:15:21;;;;;;;2.45;0.75;;;12.40;63.70;;;;;;5033222;28;20519;-69
2021/05/10 01:17:51;;;;;;;2.85;0.52;;;12.30;63.40;;;;;;5032415;28;20136;-69
2021/05/10 01:20:21;;;;;;;3.78;1.00;;;12.40;63.60;;;;;;5028627;28;20472;-70
2021/05/10 01:22:52;;;;;;;1.75;0.60;;;12.30;64.20;;;;;;5028245;28;20072;-69
2021/05/10 01:25:27;;;;;;;1.20;0.70;;;12.30;64.40;;;;;;5049167;28;20053;-70
2021/05/10 01:27:55;;;;;;;3.65;0.63;;;12.20;65.10;;;;;;5032630;28;20056;-69
2021/05/10 01:30:27;;;;;;;2.88;0.60;;;12.10;64.50;;;;;;5031612;28;20107;-69
2021/05/10 01:32:55;;;;;;;8.52;0.90;;;12.10;65.00;;;;;;5026104;28;20058;-70
2021/05/10 01:35:31;;;;;;;1.88;0.50;;;12.10;65.10;;;;;;5050002;28;20060;-69
2021/05/10 01:37:58;;;;;;;2.83;0.80;;;12.10;65.30;;;;;;5032012;28;20048;-69
2021/05/10 01:40:25;;;;;;;3.03;0.77;;;11.90;65.30;;;;;;5030274;28;20098;-69
2021/05/10 01:42:52;;;;;;;3.03;0.70;;;11.90;66.00;;;;;;5014909;28;20410;-70
2021/05/10 01:45:19;;;;;;;2.40;0.85;;;11.90;66.00;;;;;;5030733;28;20083;-69
2021/05/10 01:47:46;;;;;;;1.67;0.82;;;11.90;66.60;;;;;;5033033;28;20120;-69
2021/05/10 01:50:17;;;;;;;1.88;0.40;;;11.90;66.60;;;;;;5026096;28;20037;-69
2021/05/10 01:52:45;;;;;;;2.15;0.73;;;11.90;66.50;;;;;;5052530;28;20053;-69
2021/05/10 01:55:14;;;;;;;2.55;0.90;;;11.90;66.60;;;;;;5015515;28;20106;-69
2021/05/10 01:57:40;;;;;;;2.63;0.60;;;11.90;66.90;;;;;;5050404;28;20053;-69
2021/05/10 02:00:12;;;;;;;1.88;0.65;;;11.80;66.90;;;;;;5006753;28;20045;-69
2021/05/10 02:02:39;;;;;;;4.40;1.00;;;11.80;67.30;;;;;;5047941;28;20044;-69
2021/05/10 02:05:17;;;;;;;3.00;0.98;;;11.70;67.10;;;;;;5030709;28;20110;-69
2021/05/10 02:07:47;;;;;;;1.90;0.57;;;11.70;67.70;;;;;;5050796;28;20040;-69
2021/05/10 02:10:15;;;;;;;3.35;0.63;;;11.70;68.30;;;;;;5049624;28;20459;-70
2021/05/10 02:12:50;;;;;;;2.13;0.80;;;11.70;68.10;;;;;;5032564;28;20063;-70
2021/05/10 02:15:17;;;;;;;3.28;0.70;;;11.60;68.40;;;;;;5029359;28;20049;-69
2021/05/10 02:17:44;;;;;;;11.88;1.10;;;11.60;68.30;;;;;;5010665;28;20041;-70
2021/05/10 02:20:10;;;;;;;2.58;0.88;;;11.60;68.30;;;;;;5044785;28;20083;-69
2021/05/10 02:22:37;;;;;;;3.55;0.45;;;11.60;68.90;;;;;;5028768;28;20111;-69
2021/05/10 02:25:05;;;;;;;2.30;0.50;;;11.60;68.90;;;;;;5025507;28;20203;-69
2021/05/10 02:27:33;;;;;;;2.78;0.85;;;11.50;69.10;;;;;;5014425;28;20057;-69
2021/05/10 02:29:59;;;;;;;2.55;0.68;;;11.60;69.40;;;;;;5031619;28;20045;-69
2021/05/10 02:32:26;;;;;;;2.03;0.77;;;11.60;69.60;;;;;;4996545;28;20688;-69
2021/05/10 02:34:53;;;;;;;2.08;0.63;;;11.50;69.40;;;;;;5043107;28;20057;-69
2021/05/10 02:37:19;;;;;;;3.00;0.80;;;11.50;69.70;;;;;;5014917;28;20071;-69
2021/05/10 02:39:46;;;;;;;2.08;0.70;;;11.40;69.80;;;;;;5050197;28;20507;-70
2021/05/10 02:42:13;;;;;;;1.88;0.93;;;11.40;70.00;;;;;;5035983;28;20499;-69
2021/05/10 02:44:40;;;;;;;1.60;0.80;;;11.40;70.10;;;;;;5035336;28;20052;-69
2021/05/10 02:47:07;;;;;;;2.25;0.90;;;11.30;70.70;;;;;;5053670;28;20045;-69
2021/05/10 02:49:33;;;;;;;1.83;0.82;;;11.30;70.40;;;;;;5032058;28;20104;-69
2021/05/10 02:52:00;;;;;;;3.75;0.85;;;11.20;71.20;;;;;;5053753;28;20037;-69
2021/05/10 02:54:26;;;;;;;6.43;1.50;;;11.20;71.50;;;;;;5033112;28;20045;-69
2021/05/10 02:56:53;;;;;;;4.22;2.08;;;11.20;71.90;;;;;;5035151;28;20571;-69
2021/05/10 02:59:19;;;;;;;5.93;1.50;;;11.20;71.80;;;;;;5036246;28;20549;-69
2021/05/10 03:01:46;;;;;;;5.72;1.48;;;11.10;72.00;;;;;;5034670;28;20550;-69
2021/05/10 03:04:12;;;;;;;4.10;1.25;;;11.20;72.00;;;;;;5054036;28;20045;-69
2021/05/10 03:06:39;;;;;;;5.45;2.10;;;11.20;71.80;;;;;;5052373;28;20053;-69
2021/05/10 03:09:06;;;;;;;3.50;1.67;;;11.00;72.10;;;;;;5033375;28;20048;-69
2021/05/10 03:11:32;;;;;;;3.88;1.55;;;11.00;72.70;;;;;;5016026;28;20071;-69
2021/05/10 03:13:59;;;;;;;4.07;2.00;;;11.00;73.50;;;;;;5036120;28;20067;-70
2021/05/10 03:16:25;;;;;;;4.88;1.98;;;11.00;73.90;;;;;;5034262;28;20072;-70
2021/05/10 03:18:52;;;;;;;5.35;2.38;;;10.90;74.30;;;;;;5011687;28;20107;-69
2021/05/10 03:21:19;;;;;;;5.63;1.50;;;10.90;74.30;;;;;;5050205;28;20053;-69
2021/05/10 03:23:45;;;;;;;3.38;1.55;;;10.80;74.60;;;;;;5036623;28;20384;-69
2021/05/10 03:26:12;;;;;;;4.90;2.03;;;10.90;74.90;;;;;;5037165;28;20049;-69
2021/05/10 03:28:38;;;;;;;4.00;1.70;;;10.80;74.20;;;;;;5034294;28;20049;-69
2021/05/10 03:31:05;;;;;;;5.05;2.25;;;10.90;74.80;;;;;;5035659;28;20178;-69
2021/05/10 03:33:32;;;;;;;5.88;1.90;;;10.90;75.30;;;;;;5052266;28;20057;-69
2021/05/10 03:35:58;;;;;;;3.88;1.88;;;10.90;75.60;;;;;;5036186;28;20045;-69
2021/05/10 03:38:24;;;;;;;6.10;1.95;;;10.80;75.20;;;;;;5036621;28;20044;-69
2021/05/10 03:40:51;;;;;;;5.22;2.13;;;10.90;75.60;;;;;;5033303;28;20504;-69
2021/05/10 03:43:17;;;;;;;4.88;2.28;;;10.90;75.80;;;;;;5016909;28;20053;-69
2021/05/10 03:45:44;;;;;;;6.25;2.10;;;10.90;75.50;;;;;;5008961;28;20048;-69
2021/05/10 03:48:10;;;;;;;4.97;1.75;;;11.00;75.90;;;;;;5046523;28;20057;-69
2021/05/10 03:50:37;;;;;;;3.50;1.70;;;11.00;75.30;;;;;;5049573;28;20414;-69
2021/05/10 03:53:03;;;;;;;4.30;1.73;;;11.10;75.50;;;;;;5034740;28;20049;-69
2021/05/10 03:55:30;;;;;;;3.70;1.40;;;11.20;75.80;;;;;;5051878;28;20115;-69
2021/05/10 03:57:57;;;;;;;5.80;1.52;;;11.20;75.90;;;;;;5036053;28;20044;-69
2021/05/10 04:00:24;;;;;;;4.10;1.50;;;11.30;75.40;;;;;;5053870;28;20053;-69
2021/05/10 04:02:50;;;;;;;2.80;1.30;;;11.30;75.50;;;;;;5033515;28;20048;-69
2021/05/10 04:13:38;;;;;;;3.72;1.63;;;11.50;75.70;;;;;;4989299;28;20054;-69
2021/05/10 04:16:06;;;;;;;4.90;2.17;;;11.60;75.40;;;;;;4971659;28;20124;-69
2021/05/10 04:18:33;;;;;;;5.60;1.90;;;11.70;75.20;;;;;;4994948;28;20142;-69
2021/05/10 04:21:01;;;;;;;7.68;1.35;;;11.80;74.90;;;;;;4969526;28;20533;-69
2021/05/10 04:23:28;;;;;;;3.53;1.40;;;12.00;74.00;;;;;;4990157;28;20489;-69
2021/05/10 04:25:55;;;;;;;1.90;0.82;;;12.10;73.60;;;;;;4974299;28;20092;-69
2021/05/10 04:28:23;;;;;;;1.80;0.82;;;12.30;72.90;;;;;;4989340;28;20146;-69
2021/05/10 04:30:51;;;;;;;2.25;1.08;;;12.30;72.40;;;;;;4971563;28;20074;-69
2021/05/10 04:33:27;;;;;;;2.50;0.80;;;12.50;72.20;;;;;;4992496;28;20053;-69
2021/05/10 04:35:53;;;;;;;1.88;0.90;;;12.60;71.00;;;;;;4971384;28;20057;-69
2021/05/10 04:38:20;;;;;;;2.40;0.85;;;12.60;71.20;;;;;;4990384;28;20047;-69
2021/05/10 04:40:47;;;;;;;2.55;0.85;;;12.70;71.10;;;;;;4994597;28;20054;-69
2021/05/10 04:43:13;;;;;;;2.20;0.77;;;12.80;70.70;;;;;;4970880;28;20039;-70
2021/05/10 04:45:40;;;;;;;1.75;0.80;;;12.90;70.40;;;;;;5013541;28;20100;-69
2021/05/10 04:48:07;;;;;;;2.13;0.90;;;13.00;70.20;;;;;;5014946;28;20096;-69
2021/05/10 04:50:33;;;;;;;3.22;1.00;;;12.90;70.20;;;;;;5012188;28;20057;-69
2021/05/10 04:53:00;;;;;;;2.90;0.60;;;13.10;69.80;;;;;;5029471;28;20583;-69
2021/05/10 04:55:27;;;;;;;2.78;1.00;;;13.10;70.10;;;;;;5010776;28;20059;-69
2021/05/10 04:57:54;;;;;;;1.65;1.00;;;13.20;69.90;;;;;;5030231;28;20067;-69
2021/05/10 05:00:21;;;;;;;1.95;0.88;;;13.30;70.00;;;;;;5014399;28;20052;-69
2021/05/10 05:02:48;;;;;;;3.05;0.93;;;13.30;70.10;;;;;;5025612;28;20460;-69
2021/05/10 05:05:17;;;;;;;1.88;0.80;;;13.40;69.60;;;;;;5030029;28;20052;-69
2021/05/10 05:07:43;;;;;;;2.05;0.88;;;13.50;69.30;;;;;;5030350;28;20052;-69
2021/05/10 05:10:14;;;;;;;2.63;0.80;;;13.50;68.60;;;;;;5013400;28;20512;-70
2021/05/10 05:12:41;;;;;;;2.28;0.70;;;13.60;68.50;;;;;;5027726;28;20045;-69
2021/05/10 05:15:09;;;;;;;1.70;0.35;;;13.70;68.20;;;;;;4990464;28;20052;-69
2021/05/10 05:17:37;;;;;;;2.45;0.70;;;13.70;68.10;;;;;;5030090;28;20045;-69
2021/05/10 05:20:05;;;;;;;2.35;0.68;;;13.80;67.70;;;;;;5024700;28;20404;-69
2021/05/10 05:22:31;;;;;;;3.33;0.70;;;13.90;67.40;;;;;;5017196;28;20064;-69
2021/05/10 05:24:59;;;;;;;2.53;0.80;;;14.00;67.50;;;;;;5033090;28;20049;-69
2021/05/10 05:27:26;;;;;;;2.47;0.80;;;14.10;67.50;;;;;;5034677;28;20091;-69
2021/05/10 05:29:52;;;;;;;3.65;0.70;;;14.20;67.20;;;;;;5033631;28;20045;-69
2021/05/10 05:32:20;;;;;;;1.88;0.60;;;14.20;67.10;;;;;;5028222;28;20056;-69
2021/05/10 05:34:47;;;;;;;2.60;0.50;;;14.30;66.60;;;;;;5025832;28;20088;-69
2021/05/10 05:37:14;;;;;;;1.42;0.57;;;14.40;66.20;;;;;;5031863;28;20045;-70
2021/05/10 05:39:41;;;;;;;1.10;0.57;;;14.40;66.00;;;;;;5049040;28;20053;-69
2021/05/10 05:42:08;;;;;;;2.30;1.17;;;14.50;66.60;;;;;;5045200;28;20056;-70
2021/05/10 05:44:37;;;;;;;2.50;1.02;;;14.50;66.40;;;;;;5046922;28;20049;-70
2021/05/10 05:47:05;;;;;;;1.90;0.80;;;14.60;66.70;;;;;;5015033;28;20044;-69
2021/05/10 05:49:34;;;;;;;1.85;0.45;;;14.70;66.80;;;;;;5039891;28;20063;-69
2021/05/10 05:52:04;;;;;;;0.90;0.50;;;14.80;66.00;;;;;;5031086;28;20094;-70
2021/05/10 05:54:32;;;;;;;1.25;0.50;;;14.90;65.60;;;;;;5048730;28;20045;-69
2021/05/10 05:56:59;;;;;;;2.72;0.55;;;15.00;65.50;;;;;;5031656;28;20496;-69
2021/05/10 05:59:26;;;;;;;1.77;0.50;;;15.00;65.10;;;;;;5014767;28;20539;-69
2021/05/10 06:01:52;;;;;;;1.02;0.50;;;15.10;65.20;;;;;;5050677;28;20400;-69
2021/05/10 06:04:19;;;;;;;1.15;0.50;;;15.20;64.70;;;;;;5033937;28;20557;-66
2021/05/10 06:06:45;;;;;;;1.30;0.60;;;15.30;64.60;;;;;;5031702;28;20053;-67
2021/05/10 06:09:12;;;;;;;1.27;0.38;;;15.30;64.50;;;;;;5025296;28;20048;-67
2021/05/10 06:11:38;;;;;;;1.80;0.77;;;15.40;64.60;;;;;;5042945;28;20056;-67
2021/05/10 06:14:05;;;;;;;1.45;0.47;;;15.40;63.70;;;;;;5012531;28;20049;-68
2021/05/10 06:16:32;;;;;;;1.38;0.50;;;15.50;63.70;;;;;;5047682;28;20044;-67
2021/05/10 06:18:59;;;;;;;0.98;0.28;;;15.60;62.70;;;;;;5044529;28;20057;-67
2021/05/10 06:21:26;;;;;;;1.95;0.40;;;15.70;63.10;;;;;;5013925;28;20045;-68
2021/05/10 06:23:53;;;;;;;1.67;0.40;;;15.80;62.00;;;;;;5018403;28;20049;-67
2021/05/10 06:26:20;;;;;;;1.55;0.40;;;15.80;61.70;;;;;;5010379;28;20056;-67
2021/05/10 06:28:47;;;;;;;1.38;0.50;;;15.90;60.80;;;;;;5030322;28;20057;-67
2021/05/10 06:31:14;;;;;;;0.70;0.40;;;16.00;61.00;;;;;;4993026;28;20061;-67
2021/05/10 06:33:44;;;;;;;1.10;0.30;;;16.10;62.30;;;;;;5028884;28;20125;-68
2021/05/10 06:36:10;;;;;;;0.50;0.20;;;16.20;60.80;;;;;;5010849;28;20045;-68
2021/05/10 06:38:37;;;;;;;1.02;0.40;;;16.20;59.80;;;;;;5009905;28;20806;-68
2021/05/10 06:41:03;;;;;;;0.77;0.40;;;16.30;59.90;;;;;;5008712;28;20363;-67
2021/05/10 06:43:30;;;;;;;0.85;0.20;;;16.40;60.10;;;;;;5011051;28;20059;-68
2021/05/10 06:45:58;;;;;;;0.98;0.57;;;16.50;59.50;;;;;;5002888;28;20046;-67
2021/05/10 06:48:26;;;;;;;1.08;0.30;;;16.50;58.80;;;;;;5027370;28;20069;-68
2021/05/10 06:50:53;;;;;;;0.70;0.22;;;16.60;58.90;;;;;;5027099;28;20448;-67
2021/05/10 06:53:20;;;;;;;2.00;0.50;;;16.60;59.00;;;;;;4991931;28;20053;-67
2021/05/10 06:55:46;;;;;;;1.00;0.28;;;16.70;58.10;;;;;;5008087;28;20417;-67
2021/05/10 06:58:13;;;;;;;2.53;0.32;;;16.80;58.40;;;;;;5025849;28;20046;-67
2021/05/10 07:00:39;;;;;;;3.05;0.60;;;16.90;58.50;;;;;;5006092;28;20064;-67
2021/05/10 07:03:06;;;;;;;1.38;0.30;;;16.90;57.60;;;;;;5009771;28;20136;-68
2021/05/10 07:05:33;;;;;;;1.85;0.30;;;17.00;57.60;;;;;;5009158;28;20049;-69
2021/05/10 07:08:11;;;;;;;1.58;0.30;;;17.00;57.10;;;;;;4992589;28;20056;-68
2021/05/10 07:10:38;;;;;;;1.40;0.30;;;17.10;57.30;;;;;;5008196;28;20515;-68
2021/05/10 07:13:05;;;;;;;0.70;0.30;;;17.10;57.20;;;;;;4990224;28;20104;-67
2021/05/10 07:15:34;;;;;;;1.88;0.70;;;17.10;56.90;;;;;;5010478;28;20489;-67
2021/05/10 07:18:05;;;;;;;0.60;0.30;;;17.20;57.10;;;;;;5007799;28;20472;-67
2021/05/10 07:20:33;;;;;;;1.08;0.43;;;17.30;56.20;;;;;;5012084;28;20595;-68
2021/05/10 07:23:00;;;;;;;0.75;0.30;;;17.30;56.80;;;;;;5026498;28;20180;-68
2021/05/10 07:25:27;;;;;;;1.45;0.35;;;17.40;56.30;;;;;;5025540;28;20061;-66
2021/05/10 07:27:54;;;;;;;1.38;0.30;;;17.40;55.70;;;;;;5026898;28;20523;-69
2021/05/10 07:30:21;;;;;;;0.75;0.35;;;17.40;56.10;;;;;;5051538;28;20533;-68
2021/05/10 07:32:47;;;;;;;2.60;0.77;;;17.50;55.80;;;;;;5040245;28;20045;-69
2021/05/10 07:35:14;;;;;;;2.15;0.93;;;17.50;56.10;;;;;;5026012;28;20048;-68
2021/05/10 07:37:40;;;;;;;1.42;0.40;;;17.60;55.70;;;;;;5024283;28;20045;-67
2021/05/10 07:40:08;;;;;;;1.20;0.40;;;17.60;55.90;;;;;;5027208;28;20049;-68
2021/05/10 07:42:35;;;;;;;1.23;0.38;;;17.60;55.80;;;;;;5042641;28;20064;-69
2021/05/10 07:45:03;;;;;;;2.85;0.38;;;17.70;55.30;;;;;;5026007;28;20045;-67
2021/05/10 07:47:32;;;;;;;2.25;0.40;;;17.80;55.30;;;;;;5026795;28;22047;-67
2021/05/10 07:49:59;;;;;;;2.50;0.52;;;17.80;55.50;;;;;;5028785;28;20103;-68
2021/05/10 07:52:25;;;;;;;1.35;0.50;;;17.90;55.70;;;;;;5025483;28;20064;-67
2021/05/10 07:54:53;;;;;;;1.33;0.40;;;17.90;55.10;;;;;;5024852;28;20139;-68
2021/05/10 07:57:19;;;;;;;1.63;0.40;;;18.00;56.20;;;;;;5024909;28;20420;-68
2021/05/10 07:59:48;;;;;;;0.60;0.30;;;18.00;55.50;;;;;;5030600;28;20052;-68
2021/05/10 08:02:15;;;;;;;0.82;0.50;;;18.10;55.90;;;;;;5046252;28;20052;-67
2021/05/10 08:04:41;;;;;;;1.67;0.40;;;18.20;55.60;;;;;;5025841;28;22311;-68
2021/05/10 08:07:12;;;;;;;1.88;0.30;;;18.20;54.50;;;;;;5025422;28;20069;-68
2021/05/10 08:09:39;;;;;;;0.50;0.25;;;18.30;54.80;;;;;;5045703;28;20053;-67
2021/05/10 08:12:10;;;;;;;1.30;0.40;;;18.40;55.00;;;;;;5040806;28;20064;-68
2021/05/10 08:14:36;;;;;;;3.58;0.40;;;18.40;55.50;;;;;;5008384;28;20053;-68
2021/05/10 08:17:03;;;;;;;1.33;0.60;;;18.50;55.20;;;;;;5025212;28;20136;-68
2021/05/10 08:19:30;;;;;;;1.30;0.30;;;18.50;55.10;;;;;;5043541;28;20132;-68
2021/05/10 08:22:02;;;;;;;1.05;0.50;;;18.70;55.40;;;;;;5042851;28;20099;-68
2021/05/10 08:24:29;;;;;;;;;;;18.70;55.40;;;;;;5045195;28;20053;-68
2021/05/10 08:26:58;;;;;;;1.92;0.40;;;18.80;54.60;;;;;;5029727;28;19925;-68
2021/05/10 08:29:25;;;;;;;1.15;0.40;;;18.90;54.10;;;;;;5028780;28;20045;-68
2021/05/10 08:37:46;;;;;;;2.35;0.45;;;19.10;55.20;;;;;;5033250;28;20091;-68
2021/05/10 08:40:13;;;;;;;1.90;0.98;;;19.30;53.70;;;;;;5038537;28;20049;-68
2021/05/10 08:42:43;;;;;;;1.00;0.40;;;19.30;54.60;;;;;;5028915;28;20794;-68
2021/05/10 08:45:16;;;;;;;1.60;0.40;;;19.40;52.70;;;;;;5028522;28;20061;-68
2021/05/10 08:47:43;;;;;;;0.70;0.30;;;19.50;53.40;;;;;;5020340;28;20053;-67
2021/05/10 08:50:11;;;;;;;0.98;0.30;;;19.50;53.80;;;;;;5027054;28;20491;-68
2021/05/10 08:52:38;;;;;;;0.43;0.20;;;19.60;52.70;;;;;;5019198;28;20057;-68
2021/05/10 08:55:05;;;;;;;0.82;0.38;;;19.60;53.40;;;;;;5010630;28;20059;-68
2021/05/10 08:57:33;;;;;;;2.00;0.65;;;19.60;52.40;;;;;;5026026;28;20084;-68
2021/05/10 09:00:00;;;;;;;1.00;0.40;;;19.70;52.00;;;;;;5047424;28;20076;-67
2021/05/10 09:02:34;;;;;;;0.73;0.45;;;19.80;52.10;;;;;;5043678;28;20072;-68
2021/05/10 09:05:15;;;;;;;0.82;0.52;;;19.80;51.70;;;;;;5043906;28;20127;-67
2021/05/10 09:07:42;;;;;;;1.75;0.40;;;19.90;52.10;;;;;;5030582;28;20045;-67
2021/05/10 09:10:13;;;;;;;1.77;0.40;;;20.00;51.60;;;;;;5037786;28;20045;-67
2021/05/10 09:12:48;;;;;;;1.20;0.50;;;20.10;51.80;;;;;;5031198;28;20151;-68
2021/05/10 09:15:15;;;;;;;2.97;0.38;;;20.20;52.40;;;;;;5032346;28;20049;-67
2021/05/10 09:17:53;;;;;;;1.08;0.60;;;20.40;51.20;;;;;;5032672;28;20056;-67
2021/05/10 09:20:31;;;;;;;10.82;0.98;;;20.50;50.90;;;;;;5039234;28;20040;-67
2021/05/10 09:23:11;;;;;;;2.92;0.70;;;20.50;51.80;;;;;;5044400;28;20460;-67
2021/05/10 09:25:38;;;;;;;2.53;0.40;;;20.70;52.20;;;;;;5027109;28;20120;-67
2021/05/10 09:28:16;;;;;;;1.08;0.40;;;20.90;52.00;;;;;;5043508;28;20049;-67
2021/05/10 09:31:26;;;;;;;7.63;0.82;;;21.10;52.20;;;;;;5046664;28;20052;-67
2021/05/10 09:33:53;;;;;;;1.95;0.70;;;21.20;49.70;;;;;;5008279;28;20100;-67
2021/05/10 09:36:32;;;;;;;1.90;0.50;;;21.40;49.20;;;;;;5053170;28;20491;-67
2021/05/10 09:39:01;;;;;;;2.65;0.40;;;21.50;47.90;;;;;;5030607;28;20059;-67
2021/05/10 09:41:27;;;;;;;2.17;0.63;;;21.50;47.50;;;;;;5043443;28;20049;-67
2021/05/10 09:44:07;;;;;;;0.73;0.40;;;21.60;47.60;;;;;;5032437;28;20435;-68
2021/05/10 09:46:43;;;;;;;0.60;0.30;;;21.70;48.80;;;;;;5020256;28;20045;-67
2021/05/10 09:49:11;;;;;;;3.53;0.50;;;21.70;47.80;;;;;;5023168;28;20049;-70
2021/05/10 09:51:38;;;;;;;0.98;0.32;;;21.80;47.50;;;;;;5007450;28;20056;-67
2021/05/10 09:54:13;;;;;;;1.15;0.40;;;21.80;48.70;;;;;;5026797;28;20052;-67
2021/05/10 09:56:41;;;;;;;1.88;0.50;;;22.00;48.20;;;;;;5032080;28;20065;-67
2021/05/10 09:59:13;;;;;;;1.85;0.57;;;22.00;47.40;;;;;;5023912;28;20123;-67
2021/05/10 10:01:43;;;;;;;1.50;0.40;;;22.10;47.60;;;;;;5041177;28;20053;-70
2021/05/10 10:04:12;;;;;;;1.52;0.50;;;22.20;48.70;;;;;;5042263;28;20053;-69
2021/05/10 10:06:40;;;;;;;1.85;0.32;;;22.30;48.80;;;;;;5028017;28;20160;-67
2021/05/10 10:09:07;;;;;;;2.33;0.47;;;22.40;46.50;;;;;;5027699;28;20053;-67
2021/05/10 10:11:34;;;;;;;1.10;0.70;;;22.60;46.70;;;;;;5045543;28;20077;-67
2021/05/10 10:14:01;;;;;;;4.85;1.05;;;22.60;45.60;;;;;;5046501;28;20068;-67
2021/05/10 10:16:31;;;;;;;2.30;0.75;;;22.80;44.90;;;;;;5041858;28;20049;-67
2021/05/10 10:19:00;;;;;;;0.93;0.40;;;22.80;45.20;;;;;;5021881;28;20041;-67
2021/05/10 10:21:27;;;;;;;0.85;0.30;;;22.80;45.10;;;;;;5039369;28;20060;-67
2021/05/10 10:24:02;;;;;;;2.22;0.32;;;22.90;44.80;;;;;;5039666;28;20087;-67
2021/05/10 10:26:50;;;;;;;0.68;0.38;;;23.00;45.10;;;;;;5043085;28;20061;-67
2021/05/10 10:29:19;;;;;;;2.28;0.50;;;23.10;45.20;;;;;;5045473;28;20049;-67
2021/05/10 10:31:49;;;;;;;2.53;0.43;;;23.30;44.40;;;;;;5006565;28;20053;-66
2021/05/10 10:34:33;;;;;;;4.93;0.60;;;23.50;42.40;;;;;;5027748;28;20045;-69
2021/05/10 10:37:02;;;;;;;3.17;0.50;;;23.50;42.80;;;;;;5037328;28;20775;-69
2021/05/10 10:39:32;;;;;;;0.80;0.28;;;23.50;43.70;;;;;;5014819;28;20045;-69
2021/05/10 10:42:20;;;;;;;2.58;0.45;;;23.50;44.10;;;;;;5023484;28;20056;-68
2021/05/10 10:44:55;;;;;;;3.13;0.38;;;23.60;42.20;;;;;;5035974;28;20160;-68
2021/05/10 10:47:45;;;;;;;0.85;0.38;;;23.70;41.50;;;;;;5016692;28;20058;-68
2021/05/10 10:50:17;;;;;;;1.15;0.30;;;23.90;40.70;;;;;;5014535;28;20059;-68
2021/05/10 10:52:57;;;;;;;;;;;23.90;42.40;;;;;;5039776;28;20507;-68
2021/05/10 10:55:27;;;;;;;1.83;0.40;;;24.00;41.50;;;;;;5022442;28;19939;-68
2021/05/10 10:58:14;;;;;;;1.15;0.40;;;24.10;41.60;;;;;;5008998;28;20496;-68
2021/05/10 11:00:56;;;;;;;3.08;0.60;;;24.30;41.20;;;;;;5045701;28;20072;-68
2021/05/10 11:03:23;;;;;;;1.67;0.38;;;24.40;40.60;;;;;;5046431;28;20124;-68
2021/05/10 11:05:50;;;;;;;1.08;0.57;;;24.50;41.70;;;;;;5013901;28;20056;-69
2021/05/10 11:08:17;;;;;;;1.98;0.43;;;24.60;41.40;;;;;;5001455;28;20059;-68
2021/05/10 11:10:58;;;;;;;2.90;0.40;;;24.70;41.00;;;;;;5002141;28;20060;-68
2021/05/10 11:13:28;;;;;;;1.63;0.50;;;24.90;40.30;;;;;;5042132;28;20126;-69
2021/05/10 11:15:59;;;;;;;2.30;0.50;;;25.00;41.60;;;;;;5025840;28;20547;-68
2021/05/10 11:18:33;;;;;;;4.13;0.40;;;25.10;40.10;;;;;;5037774;28;20751;-69
2021/05/10 11:21:00;;;;;;;0.77;0.30;;;25.10;40.00;;;;;;5041135;28;20053;-69
2021/05/10 11:23:27;;;;;;;1.55;0.43;;;25.20;41.10;;;;;;5029563;28;20064;-68
2021/05/10 11:25:57;;;;;;;0.60;0.43;;;25.40;39.80;;;;;;5032293;28;20076;-68
2021/05/10 11:28:24;;;;;;;1.55;0.30;;;25.60;39.90;;;;;;5032610;28;20041;-69
2021/05/10 11:31:12;;;;;;;2.65;0.40;;;25.70;39.90;;;;;;5034799;28;20068;-68
2021/05/10 11:33:51;;;;;;;1.15;0.45;;;25.90;40.50;;;;;;5027080;28;20071;-71
2021/05/10 11:36:32;;;;;;;3.25;0.70;;;26.00;39.40;;;;;;5013715;28;20045;-72
2021/05/10 11:39:04;;;;;;;1.40;0.43;;;26.00;38.90;;;;;;5007272;28;20103;-71
2021/05/10 11:41:42;;;;;;;0.80;0.40;;;26.20;40.10;;;;;;5050746;28;20048;-71
2021/05/10 11:44:22;;;;;;;1.92;0.40;;;26.30;40.30;;;;;;5026142;28;20124;-71
2021/05/10 11:46:51;;;;;;;2.38;0.40;;;26.50;39.40;;;;;;5018085;28;20049;-71
2021/05/10 11:49:24;;;;;;;2.13;0.60;;;26.70;39.10;;;;;;5033657;28;20055;-67
2021/05/10 11:51:51;;;;;;;1.20;0.43;;;26.80;38.50;;;;;;5052790;28;20057;-67
2021/05/10 11:54:19;;;;;;;4.10;0.75;;;27.00;38.90;;;;;;5052820;28;20070;-73
2021/05/10 11:56:46;;;;;;;2.78;0.40;;;27.20;37.90;;;;;;5028815;28;20052;-70
2021/05/10 12:02:00;;;;;;;1.38;0.45;;;28.20;38.10;;;;;;5045608;28;20056;-72
2021/05/10 12:04:28;;;;;;;1.40;0.40;;;29.10;35.90;;;;;;5033714;28;20128;-72
2021/05/10 12:06:55;;;;;;;1.48;0.40;;;29.80;35.70;;;;;;5033162;28;20052;-72
2021/05/10 12:09:38;;;;;;;1.88;0.40;;;30.60;35.80;;;;;;5033500;28;20140;-73
2021/05/10 12:12:28;;;;;;;1.63;0.40;;;31.30;34.70;;;;;;5041187;28;20049;-72
2021/05/10 12:14:58;;;;;;;1.40;0.40;;;32.20;33.60;;;;;;5048361;28;20424;-72
2021/05/10 12:17:27;;;;;;;2.20;0.43;;;33.10;32.80;;;;;;5005319;28;20052;-73
2021/05/10 12:20:07;;;;;;;2.97;0.55;;;33.70;31.40;;;;;;5022838;28;20063;-73
2021/05/10 12:22:46;;;;;;;0.83;0.40;;;33.30;32.10;;;;;;5030657;28;20067;-73
2021/05/10 12:25:32;;;;;;;2.03;0.50;;;34.10;30.70;;;;;;5031588;28;20435;-74
2021/05/10 12:28:14;;;;;;;5.55;0.55;;;34.80;30.50;;;;;;5034480;28;20380;-75
2021/05/10 12:30:44;;;;;;;1.42;0.63;;;35.30;30.10;;;;;;5026636;28;20714;-74
2021/05/10 12:33:24;;;;;;;1.65;0.40;;;35.60;30.70;;;;;;5033115;28;20046;-74
2021/05/10 12:35:53;;;;;;;1.52;0.50;;;35.80;29.90;;;;;;5004447;28;20678;-74
2021/05/10 12:38:46;;;;;;;1.40;0.40;;;35.60;29.10;;;;;;5031391;28;20045;-74
2021/05/10 12:41:28;;;;;;;1.50;0.57;;;35.30;28.80;;;;;;5030514;28;20565;-74
2021/05/10 12:43:56;;;;;;;1.73;0.70;;;34.50;29.80;;;;;;5030111;28;20037;-73
2021/05/10 12:46:24;;;;;;;2.40;0.45;;;34.20;29.60;;;;;;5026743;28;20085;-74
2021/05/10 12:48:51;;;;;;;3.35;0.45;;;34.00;31.10;;;;;;5023939;28;20563;-74
2021/05/10 12:51:26;;;;;;;2.55;0.38;;;33.90;30.60;;;;;;5047406;28;20079;-75
2021/05/10 12:54:07;;;;;;;1.38;0.30;;;34.40;30.50;;;;;;5033285;28;20495;-74
2021/05/10 12:56:43;;;;;;;1.90;0.57;;;34.90;29.60;;;;;;5024111;28;20064;-74
2021/05/10 12:59:10;;;;;;;3.28;0.47;;;33.80;30.00;;;;;;5032218;28;20052;-74
2021/05/10 13:01:36;;;;;;;2.65;0.52;;;33.50;30.50;;;;;;5020895;28;20111;-74
2021/05/10 13:04:06;;;;;;;1.73;0.30;;;33.80;30.60;;;;;;5033337;28;20128;-74
2021/05/10 13:06:35;;;;;;;1.40;0.40;;;34.20;30.90;;;;;;5008220;28;20365;-73
2021/05/10 13:09:04;;;;;;;2.30;0.50;;;34.90;30.00;;;;;;5022274;28;20053;-74
2021/05/10 13:11:53;;;;;;;1.00;0.40;;;34.50;30.40;;;;;;5016407;28;20067;-74
2021/05/10 13:36:43;;;;;;;1.27;0.30;;;33.20;30.50;;;;;;5017054;28;20049;-74
2021/05/10 13:39:23;;;;;;;1.95;0.30;;;33.10;30.60;;;;;;4999250;28;20041;-74